• Join FlightAware (Why Join?)
  • Login
  • US Flag 
05:21AM EDT


 

Airport Tracker/Info


-or-


 

Live Flight TrackerFlight Track Log ✈ CLH92 ✈ 28-May-2012 ✈ EDDF / FRA - EDNY / FDH

Flight Track Log - Related Links

Times and Time Zones

All times are in EDT time to prevent confusion due to time zone crossing. See the CLH92 flight status page for this flight to view local times or setup timezone preferences in your user account.

Time Position Orientation Groundspeed Altitude Reporting Facility
EDT Latitude Longitude Course Direction KTS MPH feet Rate Location/Type
07:38AM 49.6158 8.7189 165° South  Level Estimated
07:39AM 49.5252 8.7573 165° South  Level Estimated
07:40AM 49.4345 8.7955 165° South  Level Estimated
07:41AM 49.3439 8.8336 165° South  Level Estimated
07:42AM 49.2532 8.8716 165° South  Level Estimated
07:43AM 49.1626 8.9094 165° South  Level Estimated
07:44AM 49.0719 8.9471 165° South  Level Estimated
07:45AM 48.9812 8.9846 165° South  Level Estimated
07:46AM 48.8905 9.0220 165° South  Level Estimated
07:47AM 48.7997 9.0593 165° South  Level Estimated
07:48AM 48.7090 9.0964 165° South  Level Estimated
07:49AM 48.6183 9.1334 165° South  Level Estimated
07:50AM 48.5275 9.1703 165° South  Level Estimated
07:51AM 48.4367 9.2070 165° South  Level Estimated
07:52AM 48.3460 9.2436 165° South  Level Estimated
07:53AM 48.2552 9.2801 165° South  Level Estimated
07:54AM 48.1644 9.3164 165° South  Level Estimated
07:55AM 48.0736 9.3526 165° South  Level Estimated
07:56AM 47.9827 9.3887 165° South  Level Estimated
07:57AM 47.8919 9.4247 165° South  Level Estimated
07:58AM 47.8011 9.4605 165° South  Level Estimated
07:59AM 47.7102 9.4962 165° South  Level Estimated
08:00AM 47.6193 9.5318 345° North  Level Estimated
08:01AM 47.7102 9.4962 165° South  Level Estimated
08:02AM 47.6193 9.5318 345° North  Level Estimated
08:03AM 47.7102 9.4962 165° South  Level Estimated
08:04AM 47.6193 9.5318 345° North  Level Estimated
08:05AM 47.7102 9.4962 165° South  Level Estimated
08:06AM 47.6193 9.5318 345° North  Level Estimated
08:07AM 47.7102 9.4962 165° South  Level Estimated
08:08AM 47.6193 9.5318 345° North  Level Estimated
08:09AM 47.7102 9.4962 165° South  Level Estimated
08:10AM 47.6193 9.5318 345° North  Level Estimated
08:11AM 47.7102 9.4962 345° North  Level Estimated